Sedgwick Reserve, California Weather observations

Data are for 10 minute period ending at time listed.
 Day   Time   Solar   Ave.   Ave.  Ave.  Vector  Max.   Baro.   Total    
  of    of     Rad.   Air    Rel.  Wind   Wind   Wind  Press.  Precip.   
Year   Day            Temp.  Hum.  Speed  Dir.   Gust                    
2015   (PST)  Kw/m2    F      %     mph   deg.    mph    mb.     in.     
-------------------------------------------------------------------------
  57    0:00   0.00   40.2    94    2.1   301     3.7   975.2    0.00 
  57    0:10   0.00   40.6    94    0.6   321     2.0   975.1    0.00 
  57    0:20   0.00   39.6    94    3.1     9     5.4   974.9    0.00 
  57    0:30   0.00   39.3    94    2.0   338     4.8   974.7    0.00 
  57    0:40   0.00   39.6    95    2.0   316     5.6   974.6    0.00 
  57    0:50   0.00   38.4    95    3.1   298     5.7   974.4    0.00 
  57    1:00   0.00   39.1    96    3.2   302     5.6   974.3    0.00 
  57    1:10   0.00   39.6    96    2.4   359     5.5   974.2    0.00 
  57    1:20   0.00   39.2    96    2.1   336     5.8   974.2    0.00 
  57    1:30   0.00   39.8    96    2.1   357     6.1   974.0    0.00 
  57    1:40   0.00   39.0    96    3.6   300     6.9   973.8    0.00 
  57    1:50   0.00   40.5    97    1.6   316     4.4   973.5    0.00 
  57    2:00   0.00   40.7    97    2.0   359     4.5   973.5    0.00 
  57    2:10   0.00   40.6    96    2.3     1     4.0   973.6    0.00 
  57    2:20   0.00   40.1    96    3.1   343     6.7   973.6    0.00 
  57    2:30   0.00   40.2    97    2.8   305     4.7   973.5    0.00 
  57    2:40   0.00   39.9    97    1.9   298     4.3   973.4    0.00 
  57    2:50   0.00   39.8    97    2.6   355     4.8   973.4    0.00 
  57    3:00   0.00   39.3    97    2.2   331     4.1   973.4    0.00 
  57    3:10   0.00   39.2    97    2.0   342     3.9   973.3    0.00 
  57    3:20   0.00   39.3    97    1.9   336     4.4   973.2    0.00 
  57    3:30   0.00   38.7    97    1.5   331     3.9   973.0    0.00 
  57    3:40   0.00   38.4    97    1.9   279     3.9   973.0    0.00 
  57    3:50   0.00   38.2    98    2.5     3     6.4   973.1    0.00 
  57    4:00   0.00   38.5    98    3.7   353     6.1   973.2    0.00 
  57    4:10   0.00   38.4    98    1.6   291     2.7   973.2    0.00 
  57    4:20   0.00   38.7    98    1.6   295     3.1   973.3    0.00 
  57    4:30   0.00   38.5    98    2.7     5     6.4   973.3    0.00 
  57    4:40   0.00   37.8    97    2.4   341     4.7   973.3    0.00 
  57    4:50   0.00   38.3    98    1.0   263     3.4   973.5    0.00 
  57    5:00   0.00   37.8    98    2.6    18     4.2   973.4    0.00 
  57    5:10   0.00   36.6    98    2.4   283     4.5   973.3    0.00 
  57    5:20   0.00   37.6    98    3.5   286     5.1   973.2    0.00 
  57    5:30   0.00   37.2    98    3.9   359     5.2   973.2    0.00 
  57    5:40   0.00   37.1    98    1.8   280     4.1   973.1    0.00 
  57    5:50   0.00   37.0    98    1.5     5     3.9   973.0    0.00 
  57    6:00   0.00   36.4    98    2.5   326     3.8   973.0    0.00 
  57    6:10   0.00   36.3    98    1.1   346     2.3   973.1    0.00 
  57    6:20   0.00   36.8    98    2.1   309     3.2   973.1    0.00 
  57    6:30   0.00   36.0    98    1.9   355     3.8   973.2    0.00 
  57    6:40   0.01   36.2    98    1.5   339     4.7   973.0    0.00 
  57    6:50   0.01   37.1    98    0.4   260     1.4   972.9    0.00 
  57    7:00   0.03   37.3    98    1.3   340     2.8   972.7    0.00 
  57    7:10   0.07   37.2    98    1.1     1     4.5   972.9    0.00 
  57    7:20   0.09   38.5    98    3.2   356     5.7   973.0    0.00 
  57    7:30   0.13   39.7    96    1.6   278     3.1   973.1    0.00 
  57    7:40   0.16   40.9    95    2.0   356     3.7   973.1    0.00 
  57    7:50   0.18   42.4    94    2.2     1     4.2   973.0    0.00 
  57    8:00   0.22   44.8    91    1.1   305     2.8   973.0    0.00 
  57    8:10   0.25   47.2    86    1.0    43     2.8   972.9    0.00 
  57    8:20   0.28   48.2    82    1.2   179     3.6   972.8    0.00 
  57    8:30   0.31   49.5    79    2.1   127     4.2   972.7    0.00 
  57    8:40   0.35   50.8    77    1.7    90     3.0   972.5    0.00 
  57    8:50   0.37   52.0    73    1.8   134     4.6   972.5    0.00 
  57    9:00   0.41   53.2    71    1.7    70     3.0   972.4    0.00 
  57    9:10   0.41   54.1    69    2.2   121     4.3   972.1    0.00 
  57    9:20   0.46   54.8    64    2.1   145     4.3   972.0    0.00 
  57    9:30   0.45   55.7    56    1.0   186     4.4   972.1    0.00 
  57    9:40   0.52   57.1    56    0.6   243     2.8   972.2    0.00 
  57    9:50   0.56   58.1    56    0.8   223     4.2   972.1    0.00 
  57   10:00   0.54   58.9    57    3.8   202     8.2   972.0    0.00 
  57   10:10   0.60   58.7    57    5.2   200     9.1   972.0    0.00 
  57   10:20   0.54   59.4    55    4.2   255     8.0   972.1    0.00 
  57   10:30   0.53   59.5    56    5.0   211     8.4   971.9    0.00 
  57   10:40   0.56   61.8    53    3.2   154     5.8   971.8    0.00 
  57   10:50   0.57   63.8    51    3.9   153     7.5   971.7    0.00 
  57   11:00   0.64   64.2    52    5.2   140     8.8   971.6    0.00 
  57   11:10   0.69   64.5    52    5.3   130     8.7   971.5    0.00 
  57   11:20   0.67   64.4    53    6.4   132    10.5   971.3    0.00 
  57   11:30   0.66   64.8    52    5.8   136     9.9   971.2    0.00 
  57   11:40   0.72   65.2    51    5.6   122    10.4   970.9    0.00 
  57   11:50   0.72   66.4    48    5.2   133     8.7   970.8    0.00 
  57   12:00   0.49   66.1    48    5.5   139     8.6   970.7    0.00 
  57   12:10   0.73   66.8    48    4.5   118     7.7   970.6    0.00 
  57   12:20   0.74   68.4    45    4.0   126     8.3   970.5    0.00 
  57   12:30   0.74   68.8    44    5.5   127     9.2   970.2    0.00 
  57   12:40   0.75   69.9    41    4.7   122     9.0   970.1    0.00 
  57   12:50   0.74   70.6    38    3.8    63     8.2   969.9    0.00 
  57   13:00   0.72   73.1    33    4.1   323    12.1   969.7    0.00 
  57   13:10   0.73   74.2    30    8.5   285    22.1   969.4    0.00 
  57   13:20   0.72   73.9    30   14.0   276    24.8   969.1    0.00 
  57   13:30   0.60   73.6    30   14.3   281    23.3   969.0    0.00 
  57   13:40   0.54   74.2    28   12.3   289    20.2   969.0    0.00 
  57   13:50   0.58   75.2    26   10.6   305    19.9   969.0    0.00 
  57   14:00   0.56   75.3    28    9.9   283    20.8   968.8    0.00 
  57   14:10   0.60   73.2    34   13.3   270    22.1   968.8    0.00 
  57   14:20   0.52   73.2    33   15.2   268    22.6   968.7    0.00 
  57   14:30   0.52   71.8    35   17.5   268    26.8   968.6    0.00 
  57   14:40   0.52   72.4    35   13.1   270    20.5   968.5    0.00 
  57   14:50   0.48   74.6    26   11.8   288    19.6   968.5    0.00 
  57   15:00   0.50   75.0    25   10.1   284    20.7   968.5    0.00 
  57   15:10   0.51   75.5    24   12.1   286    20.0   968.4    0.00 
  57   15:20   0.48   75.6    24    9.9   282    16.8   968.4    0.00 
  57   15:30   0.43   75.6    24   12.5   303    21.0   968.3    0.00 
  57   15:40   0.36   73.3    32   14.9   274    25.6   968.2    0.00 
  57   15:50   0.35   71.1    37   13.7   271    21.5   968.2    0.00 
  57   16:00   0.34   71.8    36   11.6   287    18.9   968.3    0.00 
  57   16:10   0.30   70.7    38   13.1   281    20.2   968.4    0.00 
  57   16:20   0.23   69.6    40   13.6   293    21.5   968.4    0.00 
  57   16:30   0.21   68.6    41   13.5   277    22.4   968.4    0.00 
  57   16:40   0.17   67.5    44   12.2   278    22.8   968.4    0.00 
  57   16:50   0.14   66.7    46   11.7   291    20.3   968.4    0.00 
  57   17:00   0.07   65.0    50    9.9   290    17.5   968.5    0.00 
  57   17:10   0.08   63.7    54   11.9   288    19.4   968.4    0.00 
  57   17:20   0.07   62.8    55   12.2   288    19.0   968.3    0.00 
  57   17:30   0.05   61.6    59   11.0   282    19.4   968.4    0.00 
  57   17:40   0.02   60.3    64   12.4   274    18.1   968.4    0.00 
  57   17:50   0.01   59.5    67   11.5   276    17.4   968.4    0.00 
  57   18:00   0.00   58.9    70   10.4   274    15.9   968.4    0.00 
  57   18:10   0.00   58.2    71    7.2   282    14.3   968.5    0.00 
  57   18:20   0.00   57.7    72    4.3   320     8.8   968.6    0.00 
  57   18:30   0.00   57.4    72    3.5   318    10.4   968.6    0.00 
  57   18:40   0.00   57.0    73    4.0   313    11.5   968.7    0.00 
  57   18:50   0.00   56.4    74    5.1   297    12.4   968.7    0.00 
  57   19:00   0.00   55.8    76    4.9   304     9.0   968.8    0.00 
  57   19:10   0.00   55.6    75    2.3   324     5.6   968.9    0.00 
  57   19:20   0.00   54.8    77    2.1   253     3.6   969.0    0.00 
  57   19:30   0.00   54.1    78    3.0   282     3.7   969.0    0.00 
  57   19:40   0.00   52.6    81    1.2    91     3.0   969.2    0.00 
  57   19:50   0.00   51.9    82    1.9   104     3.8   969.3    0.00 
  57   20:00   0.00   51.2    84    1.7   107     3.6   969.5    0.00 
  57   20:10   0.00   51.0    86    1.0   121     2.1   969.5    0.00 
  57   20:20   0.00   50.1    87    0.8    58     2.2   969.5    0.00 
  57   20:30   0.00   49.8    88    1.2    30     2.9   969.5    0.00 
  57   20:40   0.00   48.7    89    2.7     5     4.7   969.5    0.00 
  57   20:50   0.00   47.5    90    2.5     7     5.6   969.6    0.00 
  57   21:00   0.00   47.1    91    1.6   316     4.1   969.7    0.00 
  57   21:10   0.00   47.2    91    2.0   289     3.9   969.7    0.00 
  57   21:20   0.00   46.6    92    4.0     7     5.8   969.6    0.00 
  57   21:30   0.00   46.2    90    1.8   238     3.7   969.7    0.00 
  57   21:40   0.00   46.4    92    4.9   274     7.4   969.7    0.00 
  57   21:50   0.00   46.2    92    2.7   308     5.4   969.8    0.00 
  57   22:00   0.00   46.0    92    3.5     4     7.6   969.8    0.00 
  57   22:10   0.00   45.3    93    2.0   311     7.3   969.7    0.00 
  57   22:20   0.00   45.5    94    1.2   263     3.1   969.6    0.00 
  57   22:30   0.00   45.1    93    1.8   268     2.7   969.6    0.00 
  57   22:40   0.00   44.6    93    2.0     1     3.7   969.5    0.00 
  57   22:50   0.00   43.8    94    2.2   338     4.7   969.6    0.00 
  57   23:00   0.00   44.1    95    2.0   268     3.7   969.7    0.00 
  57   23:10   0.00   44.0    95    0.4   345     1.7   969.6    0.00 
  57   23:20   0.00   43.2    94    1.9   298     3.9   969.5    0.00 
  57   23:30   0.00   42.8    96    3.5    16     7.7   969.4    0.00 
  57   23:40   0.00   43.1    96    4.1   351     7.8   969.2    0.00 
  57   23:50   0.00   43.4    96    2.1   341     5.0   969.1    0.00 

Return to Sedgwick Reserve graphs page.


Western Regional Climate Center,wrcc@dri.edu